Time;durP1;ratioP1;P1;durP2;ratioP2;P2;SDS_P1;SDS_P2;PMS_P1;PMS_P2;Temp;Humidity;BMP_temperature;BMP_pressure;BME280_temperature;BME280_humidity;BME280_pressure;Samples;Min_cycle;Max_cycle;Signal;HPM_P1;HPM_P2
2022/01/13 00:00:18;;;;;;;261.42;47.03;;;;;;;0.25;100.00;104016.00;5030782;28;20462;-70
2022/01/13 00:02:44;;;;;;;332.80;50.30;;;;;;;0.21;100.00;104011.25;5031462;28;20104;-70
2022/01/13 00:05:10;;;;;;;288.75;46.78;;;;;;;0.21;100.00;104011.25;5031729;28;20034;-71
2022/01/13 00:07:36;;;;;;;204.23;45.40;;;;;;;0.18;100.00;104010.97;5031411;28;20140;-70
2022/01/13 00:10:05;;;;;;;314.60;49.17;;;;;;;0.20;100.00;104024.13;5031229;28;20033;-70
2022/01/13 00:12:36;;;;;;;341.98;51.60;;;;;;;0.19;100.00;104020.63;5034994;28;20033;-70
2022/01/13 00:15:24;;;;;;;320.58;51.45;;;;;;;0.20;100.00;104030.22;5073219;28;20036;-70
2022/01/13 00:25:37;;;;;;;;;;;;;;;0.19;100.00;104022.28;5011741;28;20037;-71
2022/01/13 00:28:13;;;;;;;301.52;49.70;;;;;;;0.08;100.00;104029.94;5011489;28;20257;-71
2022/01/13 00:30:38;;;;;;;308.27;50.80;;;;;;;0.09;100.00;104034.41;5011265;28;20042;-71
2022/01/13 00:33:04;;;;;;;313.58;49.55;;;;;;;0.11;100.00;104024.13;5011172;28;20113;-71
2022/01/13 00:35:29;;;;;;;379.60;53.00;;;;;;;0.13;100.00;104033.00;5011106;28;20079;-71
2022/01/13 00:37:55;;;;;;;246.27;47.55;;;;;;;0.17;100.00;104032.53;5011169;28;20026;-71
2022/01/13 00:40:20;;;;;;;335.25;51.47;;;;;;;0.18;100.00;104029.19;5011176;28;20065;-71
2022/01/13 00:42:45;;;;;;;297.23;48.00;;;;;;;0.20;100.00;104032.81;5011283;28;20140;-71
2022/01/13 00:45:14;;;;;;;247.88;46.67;;;;;;;0.22;100.00;104023.50;5011074;28;20030;-71
2022/01/13 00:47:40;;;;;;;243.63;48.28;;;;;;;0.19;100.00;104009.25;5010948;28;20037;-71
2022/01/13 00:50:06;;;;;;;240.38;44.33;;;;;;;0.17;100.00;104009.13;5011082;28;20603;-71
2022/01/13 00:52:32;;;;;;;321.40;49.78;;;;;;;0.13;100.00;104018.31;5010786;28;20041;-71
2022/01/13 00:54:58;;;;;;;193.63;43.45;;;;;;;0.12;100.00;104011.28;5010890;28;20079;-71
2022/01/13 00:57:27;;;;;;;283.70;47.30;;;;;;;0.07;100.00;104022.00;4994936;28;20029;-71
2022/01/13 00:59:53;;;;;;;218.63;44.33;;;;;;;0.06;100.00;104015.88;5010566;28;20034;-71
2022/01/13 01:02:18;;;;;;;166.02;38.35;;;;;;;0.01;100.00;104005.78;5039380;28;20039;-71
2022/01/13 01:04:43;;;;;;;270.23;44.80;;;;;;;-0.05;100.00;103999.22;5072990;28;20078;-71
2022/01/13 01:07:09;;;;;;;176.30;40.65;;;;;;;-0.04;100.00;104005.34;5070895;28;20039;-71
2022/01/13 01:09:40;;;;;;;184.70;40.83;;;;;;;-0.07;100.00;104002.44;5070570;28;20135;-71
2022/01/13 01:12:08;;;;;;;170.35;39.58;;;;;;;-0.08;100.00;104005.81;5072726;28;20519;-69
2022/01/13 01:14:36;;;;;;;193.95;40.92;;;;;;;-0.07;100.00;104012.84;5072391;28;20021;-70
2022/01/13 01:17:02;;;;;;;239.82;42.80;;;;;;;-0.04;100.00;104007.94;5072695;28;20025;-69
2022/01/13 01:19:29;;;;;;;202.75;42.78;;;;;;;-0.05;100.00;104011.31;5072509;28;20054;-70
2022/01/13 01:27:30;;;;;;;221.85;44.10;;;;;;;-0.03;100.00;104002.91;5000695;28;20038;-70
2022/01/13 01:32:40;;;;;;;197.15;40.67;;;;;;;0.01;100.00;104013.59;4995563;28;20116;-70
2022/01/13 01:35:13;;;;;;;188.43;39.95;;;;;;;-0.05;100.00;104009.63;5002436;28;20026;-70
2022/01/13 01:37:39;;;;;;;;;;;;;;;0.04;100.00;104011.28;4999817;28;20038;-71
2022/01/13 01:40:06;;;;;;;206.13;39.08;;;;;;;-0.03;100.00;104012.38;4990853;28;19956;-69
2022/01/13 01:42:31;;;;;;;249.23;43.00;;;;;;;-0.04;100.00;104015.75;5001556;28;20023;-71
2022/01/13 01:44:58;;;;;;;198.52;41.28;;;;;;;-0.09;100.00;104010.06;5000457;28;20065;-70
2022/01/13 01:47:26;;;;;;;171.02;37.15;;;;;;;-0.09;100.00;104010.06;4990799;28;20393;-70
2022/01/13 01:49:56;;;;;;;173.32;36.03;;;;;;;-0.10;100.00;104003.06;5000158;28;20061;-70
2022/01/13 01:52:22;;;;;;;166.85;34.92;;;;;;;-0.18;100.00;103993.56;5001050;28;20041;-70
2022/01/13 01:54:48;;;;;;;169.60;37.00;;;;;;;-0.26;100.00;103998.03;4990684;28;20034;-70
2022/01/13 01:57:16;;;;;;;133.50;33.53;;;;;;;-0.28;100.00;103993.44;4999033;28;20442;-70
2022/01/13 01:59:43;;;;;;;256.02;39.50;;;;;;;-0.32;100.00;103994.84;5002241;28;20181;-70
2022/01/13 02:02:11;;;;;;;223.55;39.63;;;;;;;-0.28;100.00;103996.03;4994795;28;20053;-68
2022/01/13 02:04:37;;;;;;;237.18;37.95;;;;;;;-0.27;100.00;103992.69;5036648;28;20036;-71
2022/01/13 02:07:05;;;;;;;219.82;37.80;;;;;;;-0.21;100.00;104001.97;5072296;28;20467;-68
2022/01/13 02:09:31;;;;;;;247.05;40.17;;;;;;;-0.32;100.00;103986.09;5070595;28;20035;-69
2022/01/13 02:12:03;;;;;;;197.43;38.28;;;;;;;-0.33;100.00;103987.78;5071924;28;20063;-71
2022/01/13 02:17:12;;;;;;;215.50;39.38;;;;;;;-0.30;100.00;103997.59;5072211;28;20474;-71
2022/01/13 02:19:44;;;;;;;218.73;38.55;;;;;;;-0.30;100.00;104002.78;5071805;28;20036;-71
2022/01/13 02:22:10;;;;;;;237.40;40.65;;;;;;;-0.29;100.00;104004.59;5069141;28;20016;-71
2022/01/13 02:24:36;;;;;;;188.32;36.75;;;;;;;-0.27;100.00;104009.19;5075566;28;20056;-71
2022/01/13 02:27:03;;;;;;;204.65;38.75;;;;;;;-0.27;100.00;104010.88;5075349;28;20104;-71
2022/01/13 02:29:29;;;;;;;166.75;36.53;;;;;;;-0.24;100.00;104008.59;5073970;28;20457;-71
2022/01/13 02:31:54;;;;;;;188.30;38.63;;;;;;;-0.22;100.00;104014.84;5075614;28;20048;-71
2022/01/13 02:34:20;;;;;;;207.75;39.42;;;;;;;-0.19;100.00;104008.28;5075161;28;20379;-71
2022/01/13 02:36:49;;;;;;;185.07;37.72;;;;;;;-0.16;100.00;104002.47;5075064;28;20494;-71
2022/01/13 02:39:15;;;;;;;183.82;35.67;;;;;;;-0.16;100.00;103999.88;5075151;28;20467;-71
2022/01/13 02:41:40;;;;;;;187.95;37.78;;;;;;;-0.17;100.00;103998.03;5075271;28;20032;-71
2022/01/13 02:44:15;;;;;;;171.55;35.50;;;;;;;-0.14;100.00;103994.81;5075039;28;20024;-71
2022/01/13 02:49:12;;;;;;;165.10;35.35;;;;;;;-0.10;100.00;104003.06;5075142;28;20119;-71
2022/01/13 02:51:40;;;;;;;178.77;36.63;;;;;;;-0.12;100.00;103996.78;5070670;28;20023;-71
2022/01/13 02:54:06;;;;;;;207.10;37.70;;;;;;;-0.11;100.00;104006.41;5074697;28;20107;-71
2022/01/13 02:56:32;;;;;;;161.45;35.95;;;;;;;-0.12;100.00;104004.56;5075008;28;20017;-70
2022/01/13 02:58:58;;;;;;;143.13;35.67;;;;;;;-0.15;100.00;103999.06;5074731;28;20047;-71
2022/01/13 03:01:24;;;;;;;138.15;36.60;;;;;;;-0.15;100.00;104006.88;5074427;28;20422;-70
2022/01/13 03:03:49;;;;;;;153.52;34.25;;;;;;;-0.15;100.00;103999.06;5074785;28;20486;-69
2022/01/13 03:06:20;;;;;;;157.48;33.75;;;;;;;-0.10;100.00;104002.13;5074651;28;20406;-71
2022/01/13 03:08:47;;;;;;;179.88;35.78;;;;;;;-0.11;100.00;104000.31;5074422;28;20024;-70
2022/01/13 03:11:15;;;;;;;170.13;35.28;;;;;;;-0.18;100.00;104002.28;5074652;28;20028;-70
2022/01/13 03:13:40;;;;;;;175.43;34.38;;;;;;;-0.18;100.00;103993.56;5070631;28;20020;-71
2022/01/13 03:16:11;;;;;;;238.50;38.35;;;;;;;-0.22;100.00;103987.16;5074578;28;20020;-70
2022/01/13 03:18:36;;;;;;;200.98;37.38;;;;;;;-0.28;100.00;103983.03;5074437;28;20070;-71
2022/01/13 03:21:03;;;;;;;188.63;35.70;;;;;;;-0.28;100.00;103985.63;5074338;28;20025;-70
2022/01/13 03:23:29;;;;;;;223.52;38.63;;;;;;;-0.28;100.00;103993.44;5074142;28;20025;-71
2022/01/13 03:25:54;;;;;;;174.13;35.72;;;;;;;-0.29;100.00;103986.41;5074390;28;20046;-70
2022/01/13 03:28:29;;;;;;;214.25;37.47;;;;;;;-0.27;100.00;103984.88;5074330;28;20029;-71
2022/01/13 03:30:56;;;;;;;243.52;39.70;;;;;;;-0.27;100.00;103988.38;5074253;28;20383;-70
2022/01/13 03:33:22;;;;;;;320.10;43.97;;;;;;;-0.26;100.00;103985.03;5074592;28;20024;-71
2022/01/13 03:35:47;;;;;;;213.18;41.28;;;;;;;-0.25;100.00;103988.53;5073890;28;20028;-70
2022/01/13 03:38:13;;;;;;;259.63;42.53;;;;;;;-0.25;100.00;103983.34;5073794;28;20029;-71
2022/01/13 03:40:39;;;;;;;201.63;39.55;;;;;;;-0.32;100.00;103979.22;5074433;28;20020;-70
2022/01/13 03:43:05;;;;;;;273.77;43.40;;;;;;;-0.33;100.00;103981.69;5074210;28;20371;-70
2022/01/13 03:45:32;;;;;;;252.32;42.80;;;;;;;-0.33;100.00;103982.59;5073927;28;20425;-70
2022/01/13 03:48:01;;;;;;;348.20;46.58;;;;;;;-0.33;100.00;103982.59;5074258;28;20024;-70
2022/01/13 03:50:27;;;;;;;277.70;44.88;;;;;;;-0.34;100.00;103978.16;5073930;28;20021;-70
2022/01/13 03:52:59;;;;;;;332.92;48.15;;;;;;;-0.30;100.00;103976.78;5073567;28;20081;-71
2022/01/13 03:55:36;;;;;;;304.95;46.67;;;;;;;-0.26;100.00;103973.69;5074104;28;20053;-71
2022/01/13 03:58:29;;;;;;;287.75;44.60;;;;;;;-0.23;100.00;103972.31;5074012;28;20055;-71
2022/01/13 04:01:40;;;;;;;244.50;42.50;;;;;;;-0.19;100.00;103978.72;5071605;28;20160;-71
2022/01/13 04:04:06;;;;;;;246.25;43.25;;;;;;;-0.21;100.00;103972.47;5031292;28;20046;-71
2022/01/13 04:06:41;;;;;;;329.00;47.58;;;;;;;-0.20;100.00;103974.31;5031436;28;20117;-71
2022/01/13 04:09:32;;;;;;;236.98;43.38;;;;;;;-0.11;100.00;103966.50;5031066;28;20053;-71
2022/01/13 04:12:00;;;;;;;242.68;43.45;;;;;;;-0.17;100.00;103972.00;5029069;28;20387;-71
2022/01/13 04:14:31;;;;;;;259.33;44.17;;;;;;;-0.17;100.00;103961.63;5031540;28;20029;-71
2022/01/13 04:16:57;;;;;;;245.25;44.65;;;;;;;-0.16;100.00;103963.44;5031187;28;20075;-71
2022/01/13 04:19:22;;;;;;;231.68;44.08;;;;;;;-0.14;100.00;103974.91;5031147;28;20392;-71
2022/01/13 04:21:47;;;;;;;280.23;46.28;;;;;;;-0.18;100.00;103964.97;5031305;28;20041;-71
2022/01/13 04:24:13;;;;;;;301.23;48.60;;;;;;;-0.15;100.00;103960.06;5031081;28;20136;-71
2022/01/13 04:26:42;;;;;;;318.48;48.33;;;;;;;-0.12;100.00;103973.38;5030972;28;20029;-71
2022/01/13 04:31:47;;;;;;;235.50;43.97;;;;;;;-0.13;100.00;103971.56;5031103;28;20053;-71
2022/01/13 04:34:13;;;;;;;235.10;42.25;;;;;;;-0.19;100.00;103966.66;5027354;28;20029;-71
2022/01/13 04:36:38;;;;;;;202.40;42.40;;;;;;;-0.18;100.00;103972.78;5031133;28;20083;-71
2022/01/13 04:39:05;;;;;;;208.48;41.88;;;;;;;-0.26;100.00;103963.28;5030643;28;20037;-71
2022/01/13 04:41:37;;;;;;;278.60;45.35;;;;;;;-0.29;100.00;103958.72;5065210;28;20040;-71
2022/01/13 04:44:07;;;;;;;285.25;44.22;;;;;;;-0.25;100.00;103954.72;5072890;28;20379;-71
2022/01/13 04:46:33;;;;;;;272.10;45.08;;;;;;;-0.23;100.00;103964.53;5072919;28;20028;-71
2022/01/13 04:49:01;;;;;;;277.38;43.92;;;;;;;-0.19;100.00;103960.53;5072719;28;20437;-72
2022/01/13 04:51:27;;;;;;;306.95;45.50;;;;;;;-0.19;100.00;103961.47;5071765;28;20059;-71
2022/01/13 04:53:52;;;;;;;319.52;45.47;;;;;;;-0.18;100.00;103963.28;5072805;28;20052;-70
2022/01/13 04:56:28;;;;;;;391.98;50.22;;;;;;;-0.16;100.00;103952.13;5072848;28;20021;-70
2022/01/13 04:58:54;;;;;;;373.90;51.25;;;;;;;-0.16;100.00;103953.06;5072532;28;20033;-70
2022/01/13 05:01:20;;;;;;;318.58;46.17;;;;;;;-0.11;100.00;103945.69;5072656;28;20043;-71
2022/01/13 05:03:45;;;;;;;348.00;46.47;;;;;;;-0.15;100.00;103957.47;5072921;28;20041;-71
2022/01/13 05:06:12;;;;;;;377.85;47.90;;;;;;;-0.11;100.00;103954.41;5072623;28;20502;-71
2022/01/13 05:08:38;;;;;;;378.35;48.55;;;;;;;-0.15;100.00;103952.25;5072879;28;20040;-70
2022/01/13 05:11:03;;;;;;;375.63;45.60;;;;;;;-0.16;100.00;103955.66;5072604;28;20016;-70
2022/01/13 05:13:29;;;;;;;453.95;49.08;;;;;;;-0.23;100.00;103953.22;5072726;28;20028;-70
2022/01/13 05:15:55;;;;;;;333.13;46.08;;;;;;;-0.27;100.00;103964.06;5072778;28;20383;-70
2022/01/13 05:18:41;;;;;;;388.40;45.63;;;;;;;-0.28;100.00;103964.84;5072387;28;20032;-71
2022/01/13 05:21:18;;;;;;;288.40;42.38;;;;;;;-0.29;100.00;103965.59;5072276;28;20025;-71
2022/01/13 05:23:43;;;;;;;307.45;46.08;;;;;;;-0.31;100.00;103965.44;5069115;28;20056;-71
2022/01/13 05:26:10;;;;;;;318.88;46.22;;;;;;;-0.32;100.00;103968.84;5072895;28;20519;-71
2022/01/13 05:28:35;;;;;;;412.73;49.03;;;;;;;-0.29;100.00;103966.53;5072401;28;20467;-71
2022/01/13 05:31:01;;;;;;;403.42;49.63;;;;;;;-0.27;100.00;103966.69;5072664;28;20035;-71
2022/01/13 05:33:26;;;;;;;367.23;45.63;;;;;;;-0.26;100.00;103955.50;5072511;28;20070;-71
2022/01/13 05:35:51;;;;;;;445.35;49.90;;;;;;;-0.26;100.00;103963.28;5072374;28;20036;-71
2022/01/13 05:38:18;;;;;;;358.98;46.45;;;;;;;-0.28;100.00;103970.03;5072341;28;20056;-71
2022/01/13 05:40:44;;;;;;;296.40;40.53;;;;;;;-0.22;100.00;103960.22;5072510;28;20561;-71
2022/01/13 05:43:10;;;;;;;444.83;48.40;;;;;;;-0.28;100.00;103955.34;5072520;28;20111;-71
2022/01/13 05:45:35;;;;;;;345.55;42.80;;;;;;;-0.27;100.00;103961.47;5072202;28;20067;-70
2022/01/13 05:48:02;;;;;;;358.13;44.85;;;;;;;-0.28;100.00;103968.34;5072678;28;20379;-71
2022/01/13 05:50:31;;;;;;;455.02;53.58;;;;;;;-0.28;100.00;103968.34;5072237;28;20071;-71
2022/01/13 05:52:57;;;;;;;475.13;52.25;;;;;;;-0.26;100.00;103961.63;5072214;28;20074;-72
2022/01/13 05:55:23;;;;;;;361.55;46.30;;;;;;;-0.25;100.00;103963.47;5072340;28;20021;-71
2022/01/13 05:57:48;;;;;;;384.05;50.25;;;;;;;-0.26;100.00;103964.22;5074583;28;20028;-71
2022/01/13 06:00:16;;;;;;;554.92;57.22;;;;;;;-0.26;100.00;103969.44;5076073;28;20513;-71
2022/01/13 06:02:42;;;;;;;464.38;53.35;;;;;;;-0.25;100.00;103962.53;5072096;28;20510;-71
2022/01/13 06:05:09;;;;;;;472.60;54.35;;;;;;;-0.20;100.00;103969.13;5075647;28;20033;-71
2022/01/13 06:07:34;;;;;;;465.50;56.00;;;;;;;-0.22;100.00;103963.78;5075883;28;20066;-71
2022/01/13 06:10:01;;;;;;;380.20;52.30;;;;;;;-0.23;100.00;103968.81;5075877;28;20029;-71
2022/01/13 06:12:37;;;;;;;528.58;57.25;;;;;;;-0.25;100.00;103965.13;5075663;28;20111;-71
2022/01/13 06:15:11;;;;;;;453.17;53.30;;;;;;;-0.22;100.00;103958.56;5075637;28;20020;-71
2022/01/13 06:17:38;;;;;;;391.00;50.10;;;;;;;-0.20;100.00;103950.91;5075535;28;20043;-71
2022/01/13 06:20:10;;;;;;;410.90;51.13;;;;;;;-0.22;100.00;103960.22;5068237;28;20016;-72
2022/01/13 06:22:36;;;;;;;564.38;58.97;;;;;;;-0.20;100.00;103948.31;5071597;28;20111;-71
2022/01/13 06:25:06;;;;;;;538.75;58.25;;;;;;;-0.22;100.00;103944.63;5067569;28;20063;-72
2022/01/13 06:27:32;;;;;;;630.13;63.20;;;;;;;-0.20;100.00;103940.50;5070722;28;20028;-71
2022/01/13 06:29:57;;;;;;;504.80;53.08;;;;;;;-0.18;100.00;103941.56;5072601;28;20029;-72
2022/01/13 06:32:23;;;;;;;443.13;52.92;;;;;;;-0.15;100.00;103946.16;5073198;28;20035;-72
2022/01/13 06:34:50;;;;;;;428.70;49.65;;;;;;;-0.19;100.00;103944.91;5074816;28;20116;-71
2022/01/13 06:37:16;;;;;;;423.02;49.10;;;;;;;-0.19;100.00;103943.25;5075642;28;20038;-72
2022/01/13 06:39:42;;;;;;;468.63;51.30;;;;;;;-0.22;100.00;103942.97;5070674;28;20045;-71
2022/01/13 06:42:07;;;;;;;497.48;53.03;;;;;;;-0.22;100.00;103947.22;5080008;28;20146;-72
2022/01/13 06:44:33;;;;;;;581.42;57.45;;;;;;;-0.22;100.00;103942.97;5077445;28;20032;-72
2022/01/13 06:46:58;;;;;;;618.10;59.72;;;;;;;-0.20;100.00;103954.41;5075014;28;20049;-71
2022/01/13 06:49:23;;;;;;;586.63;57.95;;;;;;;-0.17;100.00;103943.41;5074150;28;20103;-71
2022/01/13 06:51:49;;;;;;;459.48;52.50;;;;;;;-0.18;100.00;103947.66;5076353;28;20067;-70
2022/01/13 06:54:14;;;;;;;440.15;50.72;;;;;;;-0.19;100.00;103957.91;5066499;28;20038;-72
2022/01/13 06:56:40;;;;;;;385.63;47.97;;;;;;;-0.18;100.00;103951.97;5065386;28;20057;-71
2022/01/13 06:59:10;;;;;;;459.90;50.53;;;;;;;-0.15;100.00;103946.16;5069422;28;20032;-72
2022/01/13 07:01:37;;;;;;;443.90;50.40;;;;;;;-0.15;100.00;103947.06;5074583;28;20094;-71
2022/01/13 07:04:02;;;;;;;459.60;52.03;;;;;;;-0.16;100.00;103945.25;5076274;28;20020;-70
2022/01/13 07:06:28;;;;;;;416.00;49.10;;;;;;;-0.13;100.00;103955.00;5078395;28;20028;-71
2022/01/13 07:08:53;;;;;;;422.33;50.95;;;;;;;-0.14;100.00;103943.69;5072967;28;20032;-71
2022/01/13 07:11:18;;;;;;;510.98;52.50;;;;;;;-0.16;100.00;103950.44;5073586;28;20020;-71
2022/01/13 07:13:44;;;;;;;586.17;57.08;;;;;;;-0.16;100.00;103949.50;5076897;28;20024;-72
2022/01/13 07:16:09;;;;;;;414.77;48.65;;;;;;;-0.15;100.00;103952.25;5074363;28;20462;-70
2022/01/13 07:18:38;;;;;;;517.35;56.83;;;;;;;-0.15;100.00;103939.25;5070170;28;20075;-71
2022/01/13 07:21:06;;;;;;;365.38;48.22;;;;;;;-0.10;100.00;103950.09;5073209;28;20032;-71
2022/01/13 07:23:31;;;;;;;379.23;47.80;;;;;;;-0.10;100.00;103953.63;5070424;28;20053;-71
2022/01/13 07:25:57;;;;;;;415.50;51.53;;;;;;;-0.11;100.00;103951.81;5073526;28;20048;-71
2022/01/13 07:28:22;;;;;;;434.52;49.08;;;;;;;-0.09;100.00;103952.84;5068909;28;20375;-71
2022/01/13 07:30:47;;;;;;;366.52;47.80;;;;;;;-0.06;100.00;103949.63;5069230;28;20600;-71
2022/01/13 07:33:13;;;;;;;402.25;51.20;;;;;;;-0.05;100.00;103952.38;5073733;28;20028;-71
2022/01/13 07:35:38;;;;;;;361.00;49.08;;;;;;;0.00;100.00;103950.25;5072500;28;20029;-71
2022/01/13 07:38:03;;;;;;;496.17;52.53;;;;;;;-0.01;100.00;103940.63;5073497;28;20025;-71
2022/01/13 07:40:29;;;;;;;385.42;50.78;;;;;;;0.00;100.00;103952.88;5078565;28;20032;-71
2022/01/13 07:42:55;;;;;;;340.38;49.10;;;;;;;0.02;100.00;103950.41;5071609;28;20017;-71
2022/01/13 07:45:20;;;;;;;325.50;45.53;;;;;;;0.04;100.00;103943.66;5073502;28;20323;-71
2022/01/13 07:47:46;;;;;;;358.80;47.83;;;;;;;0.03;100.00;103953.16;5069391;28;20029;-71
2022/01/13 07:50:14;;;;;;;364.20;49.10;;;;;;;0.06;100.00;103952.50;5073750;28;20039;-71
2022/01/13 07:52:40;;;;;;;358.33;48.20;;;;;;;0.08;100.00;103953.59;5074170;28;20043;-71
2022/01/13 07:55:05;;;;;;;394.73;51.13;;;;;;;0.05;100.00;103959.41;5073407;28;20471;-71
2022/01/13 07:57:30;;;;;;;451.02;52.97;;;;;;;0.08;100.00;103957.09;5073486;28;20024;-71
2022/01/13 07:59:56;;;;;;;374.20;48.50;;;;;;;0.09;100.00;103965.84;5073740;28;20539;-71
2022/01/13 08:02:22;;;;;;;304.67;46.63;;;;;;;0.08;100.00;103967.50;5073114;28;20487;-71
2022/01/13 08:04:49;;;;;;;384.63;50.42;;;;;;;0.09;100.00;103963.25;5073377;28;20024;-71
2022/01/13 08:07:15;;;;;;;420.85;50.92;;;;;;;0.10;100.00;103960.78;5073586;28;20471;-71
2022/01/13 08:09:40;;;;;;;345.58;47.35;;;;;;;0.16;100.00;103966.56;5073218;28;20021;-71
2022/01/13 08:12:06;;;;;;;322.98;47.42;;;;;;;0.13;100.00;103967.94;5073811;28;20055;-71
2022/01/13 08:14:31;;;;;;;298.42;44.65;;;;;;;0.19;100.00;103968.56;5073828;28;20063;-71
2022/01/13 08:16:59;;;;;;;272.00;44.55;;;;;;;0.19;100.00;103968.56;5073205;28;20028;-71
2022/01/13 08:22:09;;;;;;;271.70;44.38;;;;;;;0.22;100.00;103976.66;5073596;28;20055;-71
2022/01/13 08:24:34;;;;;;;352.38;48.83;;;;;;;0.22;100.00;103976.66;5073205;28;20406;-71
2022/01/13 08:27:00;;;;;;;361.10;47.60;;;;;;;0.23;100.00;103969.75;5073167;28;20360;-71
2022/01/13 08:29:25;;;;;;;410.48;50.78;;;;;;;0.24;100.00;103969.91;5073531;28;20025;-71
2022/01/13 08:31:50;;;;;;;347.52;50.25;;;;;;;0.27;100.00;103980.59;5072980;28;20036;-71
2022/01/13 08:34:16;;;;;;;313.02;47.08;;;;;;;0.29;100.00;103983.34;5072816;28;20028;-72
2022/01/13 08:36:42;;;;;;;325.20;47.60;;;;;;;0.31;100.00;103987.94;5073360;28;20051;-71
2022/01/13 08:39:08;;;;;;;337.00;46.70;;;;;;;0.36;100.00;103987.47;5072760;28;20028;-70
2022/01/13 08:41:33;;;;;;;334.55;47.00;;;;;;;0.34;100.00;103984.72;5072885;28;20030;-71
2022/01/13 08:43:59;;;;;;;298.92;46.20;;;;;;;0.33;100.00;103981.19;5072989;28;20032;-71
2022/01/13 08:46:25;;;;;;;347.08;48.10;;;;;;;0.34;100.00;103990.84;5072788;28;20013;-71
2022/01/13 08:48:52;;;;;;;389.95;51.65;;;;;;;0.30;100.00;103996.50;5072770;28;20398;-71
2022/01/13 08:51:18;;;;;;;378.70;52.30;;;;;;;0.36;100.00;103996.19;5073157;28;20026;-71
2022/01/13 08:53:44;;;;;;;366.55;51.35;;;;;;;0.37;100.00;103994.53;5072900;28;20406;-71
2022/01/13 08:56:09;;;;;;;360.13;48.88;;;;;;;0.41;100.00;103992.38;5072817;28;20073;-71
2022/01/13 08:58:35;;;;;;;247.82;44.83;;;;;;;0.45;100.00;103990.97;5072981;28;20043;-71
2022/01/13 09:01:00;;;;;;;364.63;51.15;;;;;;;0.45;100.00;104002.31;5072400;28;20039;-70
2022/01/13 09:03:25;;;;;;;274.23;45.58;;;;;;;0.47;100.00;104003.34;5072806;28;20036;-70
2022/01/13 09:05:51;;;;;;;376.65;50.33;;;;;;;0.49;100.00;104006.09;5072953;28;20017;-72
2022/01/13 09:08:16;;;;;;;360.95;48.55;;;;;;;0.50;100.00;104005.34;5072585;28;20029;-70
2022/01/13 09:10:43;;;;;;;339.73;46.95;;;;;;;0.50;100.00;104013.16;5072702;28;20029;-72
2022/01/13 09:13:12;;;;;;;296.50;48.08;;;;;;;0.48;100.00;104015.63;5072658;28;20391;-71
2022/01/13 09:15:43;;;;;;;286.42;48.85;;;;;;;0.49;100.00;104004.41;5072720;28;20032;-71
2022/01/13 09:18:17;;;;;;;370.77;50.45;;;;;;;0.50;100.00;104010.56;5066885;28;20021;-72
2022/01/13 09:20:43;;;;;;;287.38;46.20;;;;;;;0.57;100.00;104012.97;5069353;28;20027;-71
2022/01/13 09:23:10;;;;;;;325.77;49.03;;;;;;;0.57;100.00;104012.03;5070708;28;20104;-71
2022/01/13 09:25:36;;;;;;;371.20;49.13;;;;;;;0.59;100.00;104008.81;5071931;28;20024;-72
2022/01/13 09:28:07;;;;;;;314.10;47.70;;;;;;;0.64;100.00;104020.59;5072382;28;20086;-71
2022/01/13 09:30:33;;;;;;;379.00;49.88;;;;;;;0.62;100.00;104011.72;5072681;28;20103;-72
2022/01/13 09:32:58;;;;;;;354.88;47.55;;;;;;;0.63;100.00;104018.75;5076346;28;20485;-72
2022/01/13 09:35:23;;;;;;;362.77;48.10;;;;;;;0.62;100.00;104014.31;5076506;28;20029;-71
2022/01/13 09:37:49;;;;;;;280.30;45.03;;;;;;;0.63;100.00;104023.97;5076394;28;20455;-71
2022/01/13 09:40:15;;;;;;;354.38;49.00;;;;;;;0.63;100.00;104018.75;5076196;28;20034;-72
2022/01/13 09:42:43;;;;;;;319.08;46.58;;;;;;;0.65;100.00;104012.00;5076435;28;20033;-71
2022/01/13 09:45:11;;;;;;;297.73;44.78;;;;;;;0.60;100.00;104007.16;5072210;28;20455;-71
2022/01/13 09:47:37;;;;;;;391.30;48.05;;;;;;;0.64;100.00;104018.00;5076122;28;20467;-71
2022/01/13 09:50:09;;;;;;;284.20;45.35;;;;;;;0.68;100.00;104014.00;5076090;28;20029;-71
2022/01/13 09:52:35;;;;;;;289.90;42.08;;;;;;;0.67;100.00;104015.69;5076170;28;20020;-70
2022/01/13 09:55:00;;;;;;;282.20;44.50;;;;;;;0.66;100.00;104019.06;5076252;28;20046;-71
2022/01/13 09:57:25;;;;;;;262.88;42.70;;;;;;;0.68;100.00;104007.13;5075982;28;20456;-72
2022/01/13 09:59:51;;;;;;;267.00;44.60;;;;;;;0.66;100.00;104008.63;5076060;28;20047;-70
2022/01/13 10:02:16;;;;;;;305.52;45.47;;;;;;;0.68;100.00;104007.13;5075690;28;20048;-71
2022/01/13 10:04:46;;;;;;;267.08;42.47;;;;;;;0.71;100.00;104014.28;5075818;28;20433;-71
2022/01/13 10:07:13;;;;;;;321.92;43.88;;;;;;;0.69;100.00;104019.34;5072565;28;20059;-71
2022/01/13 10:09:53;;;;;;;236.35;40.42;;;;;;;0.65;100.00;104012.00;5071961;28;20028;-71
2022/01/13 10:12:26;;;;;;;361.13;44.97;;;;;;;0.67;100.00;104023.50;5073392;28;20024;-71
2022/01/13 10:17:30;;;;;;;347.02;41.58;;;;;;;0.72;100.00;104005.69;5074993;28;20043;-72
2022/01/13 10:19:57;;;;;;;408.10;46.05;;;;;;;0.75;100.00;104008.59;5068742;28;20475;-72
2022/01/13 10:22:32;;;;;;;279.92;42.05;;;;;;;0.78;100.00;104014.09;5068982;28;20461;-72
2022/01/13 10:24:58;;;;;;;336.88;45.28;;;;;;;0.84;100.00;104013.75;5072288;28;20427;-72
2022/01/13 10:27:32;;;;;;;318.90;43.83;;;;;;;0.92;100.00;104006.66;5075658;28;20077;-72
2022/01/13 10:30:01;;;;;;;278.13;43.17;;;;;;;0.90;100.00;104014.31;5075392;28;20025;-71
2022/01/13 10:32:33;;;;;;;280.75;42.42;;;;;;;0.86;100.00;104012.22;5071682;28;20028;-73
2022/01/13 10:35:07;;;;;;;240.75;41.42;;;;;;;0.83;100.00;104017.13;5068533;28;20029;-73
2022/01/13 10:37:46;;;;;;;215.65;40.28;;;;;;;0.79;100.00;104021.13;5071023;28;20112;-72
2022/01/13 10:40:22;;;;;;;280.17;41.97;;;;;;;0.80;100.00;104017.78;5068469;28;20025;-72
2022/01/13 10:45:34;;;;;;;228.75;38.80;;;;;;;0.87;100.00;104019.25;5071353;28;20024;-71
2022/01/13 10:48:02;;;;;;;242.52;41.97;;;;;;;0.81;100.00;104019.59;5069624;28;20109;-71
2022/01/13 10:50:40;;;;;;;191.52;39.17;;;;;;;0.87;100.00;104011.44;5075260;28;20036;-72
2022/01/13 10:53:12;;;;;;;260.40;41.78;;;;;;;0.88;100.00;104012.38;5069172;28;20422;-71
2022/01/13 10:55:44;;;;;;;329.57;43.77;;;;;;;0.92;100.00;104010.19;5073147;28;20115;-72
2022/01/13 10:58:11;;;;;;;254.48;42.30;;;;;;;0.92;100.00;104012.81;5071154;28;20403;-72
2022/01/13 11:00:37;;;;;;;227.40;39.75;;;;;;;0.94;100.00;103999.91;5071093;28;20028;-71
2022/01/13 11:03:09;;;;;;;219.25;38.75;;;;;;;0.99;100.00;103991.75;5073968;28;20519;-71
2022/01/13 11:06:02;;;;;;;241.35;39.90;;;;;;;1.02;100.00;103992.03;5067837;28;20025;-71
2022/01/13 11:08:42;;;;;;;206.13;38.35;;;;;;;1.03;100.00;103979.94;5069543;28;20036;-71
2022/01/13 11:11:20;;;;;;;200.35;38.78;;;;;;;1.10;100.00;103990.16;5074027;28;20067;-71
2022/01/13 11:13:58;;;;;;;212.68;40.83;;;;;;;1.10;100.00;103984.03;5073633;28;20016;-71
2022/01/13 11:16:24;;;;;;;194.88;37.30;;;;;;;1.06;100.00;103984.50;5079011;28;20386;-71
2022/01/13 11:18:50;;;;;;;181.13;37.17;;;;;;;1.03;100.00;103975.66;5070246;28;20035;-71
2022/01/13 11:21:16;;;;;;;172.93;37.03;;;;;;;1.10;100.00;103973.59;5077665;28;20401;-71
2022/01/13 11:23:45;;;;;;;212.93;37.63;;;;;;;1.08;100.00;103972.53;5072792;28;20020;-71
2022/01/13 11:26:12;;;;;;;186.13;35.35;;;;;;;1.09;100.00;103959.63;5074175;28;20028;-71
2022/01/13 11:28:39;;;;;;;159.95;35.58;;;;;;;1.10;100.00;103971.00;5074015;28;20032;-71
2022/01/13 11:31:07;;;;;;;200.10;38.65;;;;;;;1.11;100.00;103965.03;5074075;28;20483;-71